Time;durP1;ratioP1;P1;durP2;ratioP2;P2;SDS_P1;SDS_P2;PMS_P1;PMS_P2;Temp;Humidity;BMP_temperature;BMP_pressure;BME280_temperature;BME280_humidity;BME280_pressure;Samples;Min_cycle;Max_cycle;Signal;HPM_P1;HPM_P2
2021/08/07 00:00:26;;;;;;;5.07;1.58;;;;;;;15.66;60.55;93056.03;5027645;28;20017;-59
2021/08/07 00:02:51;;;;;;;2.33;2.10;;;;;;;15.72;60.18;93052.97;5027451;28;20014;-59
2021/08/07 00:05:17;;;;;;;9.25;2.35;;;;;;;15.53;61.20;93055.78;5027594;28;20460;-60
2021/08/07 00:07:42;;;;;;;2.00;1.75;;;;;;;15.58;60.73;93060.31;5027353;28;20519;-58
2021/08/07 00:10:08;;;;;;;4.93;2.05;;;;;;;15.57;60.85;93051.22;5027105;28;20030;-53
2021/08/07 00:12:35;;;;;;;2.20;2.10;;;;;;;15.51;60.99;93055.66;5027101;28;20098;-60
2021/08/07 00:15:01;;;;;;;4.55;1.88;;;;;;;15.54;61.22;93060.78;5026357;28;20092;-60
2021/08/07 00:17:26;;;;;;;6.03;2.25;;;;;;;15.56;61.26;93054.63;5111717;28;20050;-61
2021/08/07 00:19:52;;;;;;;2.00;1.80;;;;;;;15.53;61.20;93059.31;5131042;27;20483;-61
2021/08/07 00:22:17;;;;;;;2.35;1.88;;;;;;;15.48;61.17;93062.41;5130947;27;20068;-61
2021/08/07 00:24:43;;;;;;;1.70;1.60;;;;;;;15.46;60.73;93060.22;5131027;27;20102;-61
2021/08/07 00:27:08;;;;;;;2.50;1.73;;;;;;;15.35;60.98;93066.38;5130874;27;20072;-61
2021/08/07 00:29:36;;;;;;;5.57;2.42;;;;;;;15.34;61.35;93064.91;5094376;27;20070;-61
2021/08/07 00:32:03;;;;;;;2.55;2.00;;;;;;;15.36;61.35;93067.81;5047100;28;20024;-61
2021/08/07 00:34:28;;;;;;;2.75;2.13;;;;;;;15.32;61.21;93067.53;5047080;28;20021;-60
2021/08/07 00:36:54;;;;;;;1.60;1.50;;;;;;;15.34;61.19;93059.34;5046797;28;20032;-60
2021/08/07 00:39:19;;;;;;;2.30;1.73;;;;;;;15.34;60.75;93062.13;5046945;28;20025;-61
2021/08/07 00:41:45;;;;;;;8.65;1.98;;;;;;;15.27;61.11;93067.84;5046307;28;20017;-60
2021/08/07 00:44:10;;;;;;;1.90;1.80;;;;;;;15.31;61.08;93059.78;5047346;28;20029;-61
2021/08/07 00:46:36;;;;;;;1.90;1.77;;;;;;;15.30;61.33;93059.06;5049732;28;20032;-61
2021/08/07 00:49:02;;;;;;;2.63;2.00;;;;;;;15.01;61.89;93044.47;5049824;28;20021;-61
2021/08/07 00:51:28;;;;;;;2.13;1.95;;;;;;;15.10;62.11;93061.16;5049821;28;20029;-60
2021/08/07 00:53:53;;;;;;;3.28;1.90;;;;;;;15.05;62.26;93069.78;5049737;28;20474;-60
2021/08/07 00:56:19;;;;;;;2.22;1.90;;;;;;;14.90;62.67;93056.91;5050143;28;20099;-60
2021/08/07 00:58:44;;;;;;;1.95;1.75;;;;;;;14.86;62.50;93061.44;5050039;28;20079;-60
2021/08/07 01:01:13;;;;;;;4.10;1.90;;;;;;;14.83;62.79;93073.75;5050291;28;20025;-60
2021/08/07 01:03:45;;;;;;;2.55;2.05;;;;;;;14.89;62.51;93068.63;5048961;28;20017;-60
2021/08/07 01:06:19;;;;;;;3.05;1.80;;;;;;;14.86;62.55;93062.19;5049161;28;20035;-60
2021/08/07 01:08:56;;;;;;;2.78;2.25;;;;;;;14.69;62.59;93058.81;5049857;28;20574;-54
2021/08/07 01:11:36;;;;;;;5.45;2.05;;;;;;;14.69;62.85;93067.91;5030647;28;20053;-49
2021/08/07 01:14:03;;;;;;;1.92;1.83;;;;;;;14.65;63.46;93075.94;5029038;28;20032;-49
2021/08/07 01:16:35;;;;;;;3.78;1.80;;;;;;;14.42;62.95;93054.13;5028672;28;20034;-50
2021/08/07 01:19:01;;;;;;;1.98;1.88;;;;;;;14.62;62.84;93063.22;5028599;28;20026;-50
2021/08/07 01:21:30;;;;;;;2.70;1.80;;;;;;;14.55;63.05;93049.47;5029615;28;20029;-47
2021/08/07 01:23:55;;;;;;;2.25;2.05;;;;;;;14.53;63.86;93057.66;5028527;28;20107;-51
2021/08/07 01:27:05;;;;;;;4.00;1.80;;;;;;;14.56;63.25;93062.03;5029597;28;20034;-48
2021/08/07 01:29:30;;;;;;;2.10;1.90;;;;;;;14.60;63.28;93060.28;5037746;28;20021;-55
2021/08/07 01:31:56;;;;;;;1.95;1.75;;;;;;;14.64;62.50;93063.34;5048614;28;20024;-57
2021/08/07 01:34:21;;;;;;;9.48;2.22;;;;;;;14.51;63.63;93069.34;5049661;28;20080;-57
2021/08/07 01:36:48;;;;;;;2.30;2.13;;;;;;;14.47;63.14;93074.59;5049631;28;20449;-49
2021/08/07 01:39:14;;;;;;;3.72;2.10;;;;;;;14.44;63.42;93067.47;5049665;28;20401;-58
2021/08/07 01:41:39;;;;;;;3.22;1.83;;;;;;;14.48;63.53;93067.00;5048286;28;20021;-63
2021/08/07 01:44:05;;;;;;;2.97;2.10;;;;;;;14.35;63.57;93060.56;5049617;28;20104;-64
2021/08/07 01:46:38;;;;;;;2.78;2.20;;;;;;;14.05;65.00;93069.41;5049478;28;20025;-64
2021/08/07 01:49:17;;;;;;;1.98;1.88;;;;;;;14.06;64.45;93068.09;5049301;28;20493;-60
2021/08/07 01:51:47;;;;;;;3.25;2.38;;;;;;;13.93;65.10;93068.47;5047977;28;20660;-61
2021/08/07 01:54:13;;;;;;;;;;;;;;;13.98;65.20;93064.72;5048923;28;20162;-60
2021/08/07 01:56:43;;;;;;;2.30;2.10;;;;;;;13.84;65.94;93068.47;5047882;28;19988;-60
2021/08/07 01:59:12;;;;;;;3.88;2.10;;;;;;;13.92;65.84;93057.97;5049063;28;20162;-61
2021/08/07 02:01:39;;;;;;;4.57;2.28;;;;;;;14.04;65.79;93058.88;5048062;28;20021;-61
2021/08/07 02:04:04;;;;;;;3.40;2.10;;;;;;;14.12;65.60;93062.25;5048990;28;20064;-60
2021/08/07 02:06:30;;;;;;;2.20;2.00;;;;;;;14.08;65.05;93070.25;5048140;28;20046;-60
2021/08/07 02:08:56;;;;;;;2.22;2.03;;;;;;;13.92;65.76;93069.81;5047705;28;20060;-60
2021/08/07 02:11:22;;;;;;;2.00;1.90;;;;;;;13.94;65.53;93069.97;5029547;28;20482;-60
2021/08/07 02:13:48;;;;;;;2.30;2.10;;;;;;;14.01;65.54;93065.59;5027739;28;20033;-61
2021/08/07 02:16:15;;;;;;;4.93;2.45;;;;;;;14.05;65.38;93068.66;5027785;28;20048;-60
2021/08/07 02:18:42;;;;;;;3.17;2.03;;;;;;;13.97;65.64;93052.13;5028003;28;20025;-59
2021/08/07 02:21:10;;;;;;;2.38;2.17;;;;;;;14.10;65.54;93062.81;5027655;28;20029;-59
2021/08/07 02:23:36;;;;;;;2.83;2.10;;;;;;;14.08;65.77;93067.50;5027831;28;20028;-59
2021/08/07 02:26:03;;;;;;;2.30;2.05;;;;;;;14.18;65.47;93063.44;5027917;28;20030;-61
2021/08/07 02:28:29;;;;;;;2.28;2.13;;;;;;;14.22;64.77;93063.00;5106092;27;20030;-61
2021/08/07 02:30:56;;;;;;;2.20;2.00;;;;;;;14.09;64.30;93039.16;5029630;27;20036;-61
2021/08/07 02:33:22;;;;;;;2.55;2.00;;;;;;;14.11;65.12;93063.56;5027149;28;20506;-61
2021/08/07 02:35:50;;;;;;;2.47;2.28;;;;;;;14.05;65.03;93057.56;5028592;28;20486;-61
2021/08/07 02:38:15;;;;;;;2.75;1.98;;;;;;;13.82;65.34;93040.56;5027566;28;20025;-61
2021/08/07 02:40:42;;;;;;;2.58;2.38;;;;;;;13.76;65.72;93040.09;5027668;28;20025;-62
2021/08/07 02:43:08;;;;;;;3.38;2.05;;;;;;;13.69;66.57;93070.16;5028481;28;20108;-62
2021/08/07 02:45:34;;;;;;;2.60;2.40;;;;;;;13.65;68.02;93071.88;5027609;28;20033;-63
2021/08/07 02:47:59;;;;;;;2.33;2.05;;;;;;;13.78;67.23;93065.22;5027302;28;20390;-62
2021/08/07 02:50:25;;;;;;;9.38;2.38;;;;;;;13.83;67.60;93064.97;5028755;28;20037;-62
2021/08/07 02:52:50;;;;;;;6.80;2.55;;;;;;;13.90;67.93;93064.09;5027506;28;20052;-61
2021/08/07 02:55:16;;;;;;;1.92;1.83;;;;;;;13.94;67.48;93072.72;5028363;28;20044;-61
2021/08/07 02:57:41;;;;;;;2.90;2.00;;;;;;;13.96;66.62;93074.91;5028519;28;20032;-61
2021/08/07 03:00:07;;;;;;;3.40;2.20;;;;;;;14.02;66.70;93078.88;5027417;28;20026;-61
2021/08/07 03:02:32;;;;;;;2.42;1.83;;;;;;;14.12;67.39;93078.91;5028109;28;20106;-61
2021/08/07 03:04:58;;;;;;;2.33;2.00;;;;;;;14.11;66.76;93078.19;5028466;28;20028;-61
2021/08/07 03:07:23;;;;;;;2.83;2.05;;;;;;;14.10;66.97;93081.53;5027639;28;20486;-61
2021/08/07 03:09:49;;;;;;;2.50;2.10;;;;;;;14.06;66.59;93079.19;5107450;27;20578;-62
2021/08/07 03:12:15;;;;;;;1.83;1.73;;;;;;;14.01;66.90;93085.75;5131881;27;20040;-60
2021/08/07 03:14:41;;;;;;;3.70;2.38;;;;;;;13.99;67.52;93082.81;5132239;27;20058;-60
2021/08/07 03:17:06;;;;;;;2.17;2.00;;;;;;;14.09;67.31;93077.28;5132171;27;20034;-63
2021/08/07 03:19:32;;;;;;;3.42;1.67;;;;;;;14.10;66.96;93087.81;5132193;27;20484;-62
2021/08/07 03:21:57;;;;;;;2.42;2.20;;;;;;;14.13;66.53;93083.16;5131805;27;20044;-62
2021/08/07 03:24:23;;;;;;;4.32;2.35;;;;;;;13.96;66.86;93092.31;5131790;27;20045;-62
2021/08/07 03:26:48;;;;;;;2.15;2.00;;;;;;;13.90;67.85;93085.56;5131340;27;20084;-62
2021/08/07 03:29:14;;;;;;;1.92;1.83;;;;;;;13.99;68.01;93091.13;5101213;27;20021;-63
2021/08/07 03:31:39;;;;;;;5.28;2.45;;;;;;;13.91;68.20;93092.56;5027654;28;22333;-63
2021/08/07 03:34:04;;;;;;;11.95;2.20;;;;;;;13.90;68.37;93100.19;5027691;28;20026;-63
2021/08/07 03:36:30;;;;;;;2.08;1.90;;;;;;;14.07;67.71;93099.34;5027719;28;20026;-62
2021/08/07 03:38:55;;;;;;;3.22;2.10;;;;;;;14.17;67.38;93106.41;5027530;28;20049;-62
2021/08/07 03:41:21;;;;;;;3.42;2.25;;;;;;;14.29;66.70;93120.50;5024937;28;20036;-62
2021/08/07 03:43:47;;;;;;;2.40;2.20;;;;;;;14.24;66.67;93119.44;5011121;28;20026;-62
2021/08/07 03:46:13;;;;;;;2.90;2.05;;;;;;;14.10;66.99;93103.72;5027049;28;20025;-63
2021/08/07 03:48:39;;;;;;;3.42;2.22;;;;;;;14.23;66.97;93114.44;5025599;28;20075;-62
2021/08/07 03:51:04;;;;;;;5.43;2.33;;;;;;;14.15;67.24;93122.16;5025321;28;20474;-62
2021/08/07 03:53:29;;;;;;;6.90;3.28;;;;;;;14.19;67.33;93120.44;5007982;28;20025;-62
2021/08/07 03:55:55;;;;;;;17.65;3.67;;;;;;;14.19;67.40;93116.91;5008055;28;20117;-63
2021/08/07 03:58:20;;;;;;;15.85;3.13;;;;;;;14.05;67.56;93121.41;5007990;28;20030;-62
2021/08/07 04:00:46;;;;;;;3.50;2.30;;;;;;;14.15;67.33;93125.69;5007598;28;20511;-63
2021/08/07 04:03:11;;;;;;;2.67;2.25;;;;;;;14.17;67.47;93131.38;5022674;28;20018;-60
2021/08/07 04:05:37;;;;;;;2.83;2.40;;;;;;;14.18;67.25;93130.09;5087270;28;20023;-61
2021/08/07 04:08:09;;;;;;;5.70;2.22;;;;;;;14.20;67.38;93135.06;5131167;27;20027;-59
2021/08/07 04:10:35;;;;;;;5.47;2.40;;;;;;;14.10;67.52;93131.50;5131406;27;20019;-59
2021/08/07 04:13:00;;;;;;;2.17;1.92;;;;;;;14.10;67.95;93128.72;5130691;27;20043;-60
2021/08/07 04:15:26;;;;;;;7.22;2.35;;;;;;;14.10;67.98;93135.00;5131407;27;20024;-60
2021/08/07 04:17:51;;;;;;;8.00;2.60;;;;;;;14.13;68.20;93136.63;5131714;27;20030;-61
2021/08/07 04:20:17;;;;;;;5.68;2.70;;;;;;;14.20;68.12;93137.81;5135692;27;20023;-61
2021/08/07 04:22:43;;;;;;;12.52;2.55;;;;;;;14.32;67.86;93141.53;5135600;27;20019;-62
2021/08/07 04:25:09;;;;;;;2.50;2.30;;;;;;;14.36;67.55;93144.59;5135576;27;20592;-61
2021/08/07 04:27:35;;;;;;;5.47;2.45;;;;;;;14.38;67.68;93151.06;5134815;27;20019;-61
2021/08/07 04:30:02;;;;;;;2.35;2.08;;;;;;;14.44;67.17;93148.00;5070685;27;20018;-61
2021/08/07 04:32:28;;;;;;;3.97;2.17;;;;;;;14.40;67.61;93156.75;5029311;28;20028;-61
2021/08/07 04:34:53;;;;;;;2.50;2.30;;;;;;;14.46;67.34;93155.75;5030863;28;20021;-61
2021/08/07 04:37:18;;;;;;;2.83;2.53;;;;;;;14.57;67.43;93163.53;5030828;28;20490;-61
2021/08/07 04:39:44;;;;;;;2.60;2.30;;;;;;;14.65;67.11;93166.91;5030505;28;20426;-60
2021/08/07 04:42:09;;;;;;;3.45;2.80;;;;;;;14.57;67.36;93169.81;5030517;28;20102;-60
2021/08/07 04:44:36;;;;;;;6.15;2.38;;;;;;;14.65;67.75;93175.25;5030371;28;20022;-60
2021/08/07 04:47:02;;;;;;;5.80;2.72;;;;;;;14.62;68.18;93170.84;5026008;28;20041;-60
2021/08/07 04:49:27;;;;;;;5.63;2.50;;;;;;;14.77;68.06;93167.81;5019284;28;20025;-59
2021/08/07 04:51:53;;;;;;;3.05;2.33;;;;;;;14.84;67.69;93166.94;5023491;28;20485;-60
2021/08/07 04:54:19;;;;;;;5.47;2.17;;;;;;;14.96;67.52;93176.91;5018921;28;20037;-59
2021/08/07 04:56:44;;;;;;;12.43;3.42;;;;;;;15.00;67.90;93177.19;5023878;28;20526;-60
2021/08/07 04:59:10;;;;;;;8.45;2.38;;;;;;;15.12;68.08;93172.50;5017588;28;20401;-60
2021/08/07 05:01:36;;;;;;;12.48;3.13;;;;;;;15.19;67.84;93179.25;5018797;28;20057;-59
2021/08/07 05:04:01;;;;;;;4.03;2.20;;;;;;;15.28;68.10;93178.50;5017361;28;20029;-59
2021/08/07 05:06:27;;;;;;;6.57;2.38;;;;;;;15.39;67.55;93177.19;5017829;28;20013;-60
2021/08/07 05:08:52;;;;;;;3.10;2.28;;;;;;;15.48;67.33;93182.78;5019128;28;20071;-60
2021/08/07 05:11:17;;;;;;;2.83;2.47;;;;;;;15.54;67.29;93188.03;5024813;27;20418;-59
2021/08/07 05:13:43;;;;;;;4.32;2.40;;;;;;;15.62;67.63;93178.22;5029607;28;20028;-61
2021/08/07 05:16:09;;;;;;;7.65;3.20;;;;;;;15.63;67.81;93190.81;5029799;28;20103;-61
2021/08/07 05:18:34;;;;;;;5.95;2.53;;;;;;;15.78;68.01;93190.50;5029812;28;20036;-60
2021/08/07 05:21:00;;;;;;;3.50;2.75;;;;;;;15.87;67.56;93183.44;5030005;28;20105;-61
2021/08/07 05:23:25;;;;;;;4.10;2.30;;;;;;;15.95;66.64;93189.56;5030077;28;20022;-61
2021/08/07 05:25:51;;;;;;;3.08;2.42;;;;;;;16.05;66.71;93195.84;5029670;28;20029;-61
2021/08/07 05:28:16;;;;;;;32.33;4.38;;;;;;;16.17;66.74;93190.38;5098426;27;20023;-60
2021/08/07 05:42:27;;;;;;;3.38;2.15;;;;;;;17.29;61.26;93206.38;5063929;28;20980;-59
2021/08/07 05:44:53;;;;;;;2.83;2.15;;;;;;;17.27;61.77;93206.25;5064221;28;20119;-59
2021/08/07 05:47:18;;;;;;;1.88;1.73;;;;;;;17.31;62.21;93206.50;5064215;28;20374;-58
2021/08/07 05:49:44;;;;;;;5.55;2.00;;;;;;;17.39;62.75;93218.19;5044561;28;20493;-59
2021/08/07 05:52:09;;;;;;;3.05;1.92;;;;;;;17.41;62.18;93223.19;5043795;28;20052;-59
2021/08/07 05:54:34;;;;;;;2.65;2.20;;;;;;;17.38;63.54;93218.81;5044039;28;20057;-61
2021/08/07 05:57:00;;;;;;;32.53;4.75;;;;;;;17.52;61.53;93214.16;5043792;28;20036;-60
2021/08/07 05:59:25;;;;;;;45.17;3.95;;;;;;;17.73;61.98;93224.56;5058197;28;20029;-61
2021/08/07 06:01:51;;;;;;;16.52;2.53;;;;;;;17.76;61.40;93218.50;5063591;28;20020;-61
2021/08/07 06:04:16;;;;;;;8.23;1.80;;;;;;;17.94;60.61;93219.66;5054168;28;20053;-62
2021/08/07 06:06:41;;;;;;;13.32;2.10;;;;;;;18.08;60.23;93214.94;5051198;28;20421;-62
2021/08/07 06:09:07;;;;;;;21.27;2.97;;;;;;;18.18;58.93;93223.97;5053065;28;20403;-60
2021/08/07 06:11:32;;;;;;;14.30;2.72;;;;;;;18.25;59.19;93219.50;5052232;28;20028;-61
2021/08/07 06:13:58;;;;;;;12.43;2.08;;;;;;;18.49;58.94;93228.66;5053516;28;20018;-60
2021/08/07 06:16:23;;;;;;;11.00;1.77;;;;;;;18.52;57.60;93216.25;5053497;28;20013;-60
2021/08/07 06:18:49;;;;;;;7.68;2.00;;;;;;;18.79;58.03;93230.50;5052084;28;20400;-57
2021/08/07 06:21:14;;;;;;;3.40;1.30;;;;;;;18.98;55.87;93233.06;5052386;28;20013;-59
2021/08/07 06:23:40;;;;;;;1.70;1.40;;;;;;;19.08;56.32;93232.94;5051079;28;20028;-59
2021/08/07 06:26:05;;;;;;;2.45;1.20;;;;;;;19.13;54.81;93229.75;5052816;28;20027;-60
2021/08/07 06:28:31;;;;;;;1.55;1.20;;;;;;;19.20;57.90;93239.97;5051029;28;20017;-58
2021/08/07 06:30:57;;;;;;;4.03;1.90;;;;;;;19.24;55.93;93239.47;5050954;28;20477;-59
2021/08/07 06:33:22;;;;;;;29.40;3.15;;;;;;;19.40;54.64;93240.44;5053091;28;20074;-59
2021/08/07 06:35:48;;;;;;;1.92;1.20;;;;;;;19.52;55.10;93246.75;5051998;28;20084;-58
2021/08/07 06:38:13;;;;;;;2.28;1.42;;;;;;;19.65;53.64;93249.63;5051713;28;20520;-58
2021/08/07 06:40:39;;;;;;;3.15;1.20;;;;;;;19.80;53.80;93253.22;5052569;28;20513;-58
2021/08/07 06:43:04;;;;;;;7.32;1.90;;;;;;;19.95;53.12;93256.22;5041578;28;20032;-58
2021/08/07 06:45:30;;;;;;;1.55;0.93;;;;;;;20.02;52.69;93254.50;5038706;28;20014;-58
2021/08/07 06:47:55;;;;;;;11.77;1.67;;;;;;;20.14;52.05;93252.38;5038159;28;20017;-59
2021/08/07 06:50:22;;;;;;;3.05;1.20;;;;;;;20.15;53.16;93246.16;5039495;28;20557;-59
2021/08/07 06:52:47;;;;;;;5.10;1.75;;;;;;;20.29;52.30;93260.25;5038094;28;20034;-59
2021/08/07 06:55:13;;;;;;;3.25;1.67;;;;;;;20.37;52.11;93258.63;5038148;28;20072;-59
2021/08/07 06:57:42;;;;;;;4.63;1.40;;;;;;;20.47;51.42;93266.09;5045733;28;20089;-60
2021/08/07 07:00:09;;;;;;;35.13;2.42;;;;;;;20.46;51.14;93267.47;5049670;28;20021;-59
2021/08/07 07:02:36;;;;;;;24.10;2.58;;;;;;;20.53;50.30;93269.25;5049604;28;20036;-59
2021/08/07 07:05:02;;;;;;;44.85;4.20;;;;;;;20.54;50.44;93263.03;5038550;27;20029;-60
2021/08/07 07:07:28;;;;;;;2.55;1.50;;;;;;;20.67;50.33;93278.44;5037895;28;20055;-60
2021/08/07 07:09:54;;;;;;;1.65;1.13;;;;;;;20.74;49.65;93277.41;5042827;28;20459;-61
2021/08/07 07:12:21;;;;;;;16.60;1.67;;;;;;;20.79;50.27;93267.88;5028508;28;20030;-65
2021/08/07 07:14:46;;;;;;;1.35;1.20;;;;;;;20.82;49.45;93270.16;5028415;28;20056;-60
2021/08/07 07:17:13;;;;;;;4.90;1.17;;;;;;;20.92;49.30;93267.16;5043946;28;20494;-64
2021/08/07 07:19:39;;;;;;;2.85;1.08;;;;;;;20.97;49.43;93266.75;5046597;28;20025;-60
2021/08/07 07:22:05;;;;;;;1.83;1.33;;;;;;;21.04;48.54;93268.56;5045328;28;20051;-60
2021/08/07 07:24:31;;;;;;;2.25;1.33;;;;;;;21.13;48.15;93262.03;5045953;28;20437;-60
2021/08/07 07:26:56;;;;;;;2.65;1.30;;;;;;;21.18;49.06;93265.75;5044848;28;20029;-61
2021/08/07 07:29:22;;;;;;;14.00;2.28;;;;;;;21.39;47.58;93265.44;5042572;28;20033;-62
2021/08/07 07:31:47;;;;;;;1.63;1.23;;;;;;;21.55;46.28;93268.34;5031826;28;20028;-65
2021/08/07 07:34:13;;;;;;;2.72;1.20;;;;;;;21.81;47.15;93266.84;5034711;28;20025;-63
2021/08/07 07:36:39;;;;;;;1.20;1.10;;;;;;;22.20;44.29;93270.19;5036293;28;20106;-62
2021/08/07 07:39:05;;;;;;;0.80;0.80;;;;;;;23.21;42.81;93267.19;5031861;28;20026;-66
2021/08/07 07:41:30;;;;;;;5.70;1.10;;;;;;;24.26;40.09;93268.88;5034250;28;20044;-62
2021/08/07 07:43:56;;;;;;;1.20;1.00;;;;;;;25.34;37.44;93282.94;5035941;28;20117;-61
2021/08/07 07:46:22;;;;;;;1.63;0.73;;;;;;;26.44;34.51;93280.50;5033795;28;20028;-63
2021/08/07 07:48:48;;;;;;;1.05;0.80;;;;;;;27.86;32.82;93285.47;5034976;28;20021;-60
2021/08/07 07:51:13;;;;;;;1.10;0.90;;;;;;;28.46;31.54;93281.38;5034870;28;20564;-62
2021/08/07 07:53:39;;;;;;;2.42;0.90;;;;;;;29.48;29.92;93282.38;5032365;28;20056;-65
2021/08/07 07:56:04;;;;;;;6.82;1.10;;;;;;;29.97;29.11;93276.28;5034991;28;20432;-63
2021/08/07 07:58:30;;;;;;;6.60;1.08;;;;;;;31.22;27.37;93284.84;5034516;28;20061;-63
2021/08/07 08:00:56;;;;;;;0.95;0.63;;;;;;;32.40;25.35;93299.19;5033534;28;20050;-64
2021/08/07 08:03:21;;;;;;;5.88;1.20;;;;;;;33.90;23.49;93290.34;5033743;28;20054;-65
2021/08/07 08:05:47;;;;;;;10.38;0.90;;;;;;;34.96;21.38;93303.53;5032179;28;20021;-62
2021/08/07 08:08:13;;;;;;;2.35;0.50;;;;;;;35.57;20.99;93313.59;5032488;28;20017;-62
2021/08/07 08:10:40;;;;;;;5.43;0.90;;;;;;;35.35;20.41;93302.09;5032515;28;20030;-64
2021/08/07 08:13:06;;;;;;;2.17;0.98;;;;;;;35.94;19.91;93299.13;5034256;28;20032;-63
2021/08/07 08:15:31;;;;;;;30.88;2.55;;;;;;;35.73;20.13;93312.84;5037345;28;20017;-61
2021/08/07 08:17:57;;;;;;;18.63;1.58;;;;;;;35.35;20.46;93307.13;5033532;28;20044;-65
2021/08/07 08:20:22;;;;;;;0.63;0.63;;;;;;;35.71;20.22;93309.97;5033461;28;20040;-66
2021/08/07 08:22:48;;;;;;;5.07;0.90;;;;;;;35.61;19.89;93316.44;5033116;28;20515;-68
2021/08/07 08:25:13;;;;;;;7.03;0.80;;;;;;;35.82;19.45;93311.38;5034557;28;20576;-68
2021/08/07 08:27:40;;;;;;;8.00;1.23;;;;;;;36.12;18.67;93311.31;5033339;28;20131;-63
2021/08/07 08:30:07;;;;;;;4.20;0.80;;;;;;;36.15;19.51;93311.97;5035998;28;20046;-64
2021/08/07 08:32:32;;;;;;;1.38;0.50;;;;;;;35.25;19.70;93319.34;5034134;28;20157;-67
2021/08/07 08:34:58;;;;;;;5.07;0.88;;;;;;;34.74;20.60;93312.13;5033937;28;20021;-66
2021/08/07 08:37:24;;;;;;;6.70;0.80;;;;;;;35.51;19.83;93322.22;5029543;28;20029;-63
2021/08/07 08:39:50;;;;;;;1.67;0.80;;;;;;;34.24;21.18;93313.41;5034380;28;20490;-62
2021/08/07 08:42:16;;;;;;;0.93;0.60;;;;;;;34.27;21.26;93323.47;5035396;28;20045;-66
2021/08/07 08:44:42;;;;;;;14.35;1.55;;;;;;;34.46;20.76;93309.19;5036371;28;20033;-63
2021/08/07 08:47:08;;;;;;;9.80;1.13;;;;;;;36.01;18.98;93307.03;5037443;28;20043;-68
2021/08/07 08:49:34;;;;;;;40.60;3.55;;;;;;;37.21;18.36;93307.78;5036930;28;20033;-65
2021/08/07 08:52:01;;;;;;;24.40;2.17;;;;;;;37.58;17.24;93311.06;5035743;28;20028;-62
2021/08/07 08:54:27;;;;;;;18.73;2.22;;;;;;;38.02;17.78;93316.41;5044710;28;20050;-63
2021/08/07 08:56:52;;;;;;;13.32;1.80;;;;;;;38.79;16.74;93312.59;5044518;28;20033;-63
2021/08/07 08:59:19;;;;;;;1.10;1.00;;;;;;;38.68;15.97;93312.72;5039367;28;20472;-64
2021/08/07 09:01:45;;;;;;;18.15;1.55;;;;;;;38.48;16.00;93307.22;5043139;28;20017;-63
2021/08/07 09:04:10;;;;;;;14.77;1.58;;;;;;;38.54;15.61;93312.16;5043470;28;20028;-61
2021/08/07 09:06:36;;;;;;;12.45;1.40;;;;;;;38.42;15.66;93309.47;5044104;28;20025;-65
2021/08/07 09:09:03;;;;;;;2.85;0.88;;;;;;;37.46;16.38;93306.16;5043421;28;20048;-66
2021/08/07 09:11:29;;;;;;;23.42;2.10;;;;;;;37.83;16.11;93300.75;5024296;28;20021;-65
2021/08/07 09:14:13;;;;;;;17.85;1.55;;;;;;;37.87;16.00;93310.09;5023013;28;20758;-65
2021/08/07 09:17:04;;;;;;;2.92;0.77;;;;;;;38.10;15.57;93307.66;5028555;28;20026;-65
2021/08/07 09:19:39;;;;;;;12.60;1.70;;;;;;;38.27;16.02;93300.25;5039024;28;20028;-65
2021/08/07 09:22:13;;;;;;;13.75;1.13;;;;;;;38.17;15.20;93303.25;5024292;28;20043;-63
2021/08/07 09:25:16;;;;;;;8.27;1.00;;;;;;;38.37;15.82;93305.19;5022828;28;20025;-63
2021/08/07 09:27:44;;;;;;;11.25;1.17;;;;;;;37.99;15.68;93317.88;5025502;28;20077;-63
2021/08/07 09:30:19;;;;;;;5.85;1.02;;;;;;;38.28;14.98;93324.06;5036134;28;20068;-63
2021/08/07 09:32:51;;;;;;;8.98;2.10;;;;;;;38.70;14.85;93319.94;5023942;28;20519;-63
2021/08/07 09:35:23;;;;;;;11.43;2.03;;;;;;;38.50;15.47;93312.94;5023928;28;20034;-62
2021/08/07 09:38:22;;;;;;;10.02;0.90;;;;;;;39.39;14.52;93317.44;5022901;28;20036;-63
2021/08/07 09:40:52;;;;;;;16.73;1.65;;;;;;;38.96;14.11;93323.16;5022248;28;20049;-60
2021/08/07 09:43:28;;;;;;;16.80;1.60;;;;;;;37.98;15.04;93319.34;5032831;28;20471;-62
2021/08/07 09:46:01;;;;;;;2.35;0.60;;;;;;;38.09;14.76;93320.66;5032112;28;20762;-63
2021/08/07 09:48:32;;;;;;;6.53;0.90;;;;;;;37.80;15.28;93314.47;5031960;28;20058;-63
2021/08/07 09:50:58;;;;;;;31.92;2.75;;;;;;;38.29;15.04;93320.41;5032789;28;20022;-60
2021/08/07 09:53:30;;;;;;;4.60;0.95;;;;;;;37.97;14.90;93326.53;5033174;28;20029;-62
2021/08/07 09:56:04;;;;;;;29.55;2.13;;;;;;;37.41;15.47;93322.03;5032695;28;20025;-63
2021/08/07 09:58:30;;;;;;;3.10;1.00;;;;;;;37.20;15.43;93315.72;5031394;28;20031;-66
2021/08/07 10:00:56;;;;;;;6.40;0.75;;;;;;;37.43;15.50;93315.53;5033771;28;20040;-63
2021/08/07 10:03:24;;;;;;;5.78;0.80;;;;;;;38.69;15.30;93307.66;5033643;28;20120;-64
2021/08/07 10:05:50;;;;;;;8.93;1.10;;;;;;;39.20;14.66;93313.44;5031943;28;20036;-63
2021/08/07 10:08:16;;;;;;;5.85;0.80;;;;;;;39.98;14.12;93312.06;5031038;28;20021;-61
2021/08/07 10:10:43;;;;;;;11.73;0.95;;;;;;;39.47;13.02;93307.91;5033492;28;20634;-62
2021/08/07 10:13:10;;;;;;;2.07;0.47;;;;;;;39.59;13.89;93305.56;5037087;28;20025;-61
2021/08/07 10:15:37;;;;;;;8.48;0.88;;;;;;;39.31;14.33;93312.50;5033312;28;20032;-58
2021/08/07 10:18:02;;;;;;;21.42;1.73;;;;;;;39.59;14.02;93307.75;5035549;28;20489;-60
2021/08/07 10:20:28;;;;;;;2.05;0.80;;;;;;;39.67;13.57;93311.19;5028394;28;20044;-60
2021/08/07 10:22:54;;;;;;;7.20;1.13;;;;;;;40.03;13.84;93298.97;5026995;28;20127;-64
2021/08/07 10:25:20;;;;;;;22.15;2.55;;;;;;;40.20;12.91;93295.78;5037286;28;20033;-65
2021/08/07 10:27:46;;;;;;;10.82;1.10;;;;;;;40.51;13.07;93305.97;5035600;28;20052;-61
2021/08/07 10:30:12;;;;;;;2.90;0.80;;;;;;;40.49;13.49;93303.13;5036125;28;20465;-64
2021/08/07 10:32:40;;;;;;;7.78;0.90;;;;;;;40.52;13.67;93295.84;5033451;28;20029;-64
2021/08/07 10:35:09;;;;;;;1.38;0.60;;;;;;;41.45;12.84;93311.81;5046339;28;20436;-63
2021/08/07 10:37:35;;;;;;;3.05;0.98;;;;;;;41.46;12.13;93310.34;5046238;28;20584;-62
2021/08/07 10:40:00;;;;;;;2.10;0.50;;;;;;;40.28;13.41;93301.38;5035053;28;20033;-62
2021/08/07 10:42:28;;;;;;;2.80;0.70;;;;;;;41.01;12.20;93297.66;5027053;28;20046;-63
2021/08/07 10:44:55;;;;;;;4.07;0.60;;;;;;;39.91;13.21;93301.38;5032134;28;20040;-60
2021/08/07 10:47:35;;;;;;;8.80;1.15;;;;;;;39.64;13.49;93295.34;5034344;28;20505;-62
2021/08/07 10:50:01;;;;;;;3.75;1.00;;;;;;;39.95;13.61;93292.59;5046134;28;20037;-61
2021/08/07 10:52:26;;;;;;;3.88;1.00;;;;;;;39.87;13.41;93293.47;5044880;28;20036;-63
2021/08/07 10:54:55;;;;;;;5.80;1.08;;;;;;;38.99;13.90;93269.69;5046110;28;20029;-64
2021/08/07 10:57:42;;;;;;;2.15;0.60;;;;;;;39.41;14.57;93265.41;5045787;28;20025;-61
2021/08/07 11:00:16;;;;;;;0.85;0.50;;;;;;;38.65;14.84;93270.91;5045891;28;20060;-66
2021/08/07 11:02:43;;;;;;;0.50;0.50;;;;;;;38.35;14.10;93271.31;5046220;28;20055;-67
2021/08/07 11:05:08;;;;;;;0.70;0.65;;;;;;;39.10;13.70;93264.44;5044785;28;20036;-63
2021/08/07 11:07:35;;;;;;;1.73;0.60;;;;;;;39.25;14.15;93259.88;5046468;28;20101;-65
2021/08/07 11:10:12;;;;;;;0.75;0.57;;;;;;;38.47;13.49;93258.88;5046650;28;20025;-60
2021/08/07 11:12:40;;;;;;;0.50;0.50;;;;;;;37.63;15.36;93254.84;5046446;28;20482;-66
2021/08/07 11:15:27;;;;;;;0.50;0.50;;;;;;;37.38;15.87;93253.69;5046668;28;20060;-63
2021/08/07 11:17:53;;;;;;;0.60;0.60;;;;;;;36.83;16.32;93267.75;5046291;28;20086;-67
2021/08/07 11:20:36;;;;;;;0.65;0.63;;;;;;;36.92;16.36;93261.25;5044600;28;20070;-63
2021/08/07 11:23:02;;;;;;;0.75;0.75;;;;;;;37.05;16.21;93265.47;5045354;28;20092;-64
2021/08/07 11:25:27;;;;;;;1.58;0.82;;;;;;;37.11;16.05;93261.81;5043922;28;20036;-63
2021/08/07 11:27:55;;;;;;;2.25;0.68;;;;;;;36.69;15.77;93267.88;5043604;28;20516;-62
2021/08/07 11:30:24;;;;;;;1.73;0.80;;;;;;;36.08;16.64;93276.81;5045346;28;20043;-66
2021/08/07 11:32:55;;;;;;;59.97;4.80;;;;;;;35.98;17.62;93258.88;5036522;28;20029;-62
2021/08/07 11:35:45;;;;;;;24.13;1.67;;;;;;;36.07;17.33;93258.13;5026410;28;20169;-65
2021/08/07 11:38:13;;;;;;;5.82;1.08;;;;;;;36.00;17.63;93247.38;5025876;28;20135;-64
2021/08/07 11:40:57;;;;;;;7.65;0.95;;;;;;;35.80;18.01;93248.19;5025466;28;20088;-62
2021/08/07 11:43:33;;;;;;;9.32;1.23;;;;;;;35.11;18.28;93244.72;5026391;28;20033;-61